Time;durP1;ratioP1;P1;durP2;ratioP2;P2;SDS_P1;SDS_P2;PMS_P1;PMS_P2;Temp;Humidity;BMP_temperature;BMP_pressure;BME280_temperature;BME280_humidity;BME280_pressure;Samples;Min_cycle;Max_cycle;Signal;HPM_P1;HPM_P2
2023/01/16 00:00:59;;;;;;;1.03;0.50;;;5.00;99.90;;;;;;4862991;29;20220;-87
2023/01/16 00:03:25;;;;;;;2.70;0.60;;;5.00;99.90;;;;;;4862685;29;20184;-84
2023/01/16 00:05:50;;;;;;;2.00;0.50;;;5.00;99.90;;;;;;4862717;29;20180;-87
2023/01/16 00:08:16;;;;;;;3.77;0.80;;;5.10;99.90;;;;;;4862651;29;20197;-85
2023/01/16 00:10:43;;;;;;;1.40;0.60;;;5.10;99.90;;;;;;4862709;29;20184;-86
2023/01/16 00:13:11;;;;;;;5.80;1.03;;;5.10;99.90;;;;;;4862515;29;20256;-86
2023/01/16 00:15:37;;;;;;;1.03;0.50;;;5.10;99.90;;;;;;4862717;29;20181;-86
2023/01/16 00:18:04;;;;;;;4.07;0.70;;;5.10;99.90;;;;;;4861744;29;20185;-85
2023/01/16 00:20:30;;;;;;;3.07;0.63;;;5.10;99.90;;;;;;4862198;29;20259;-83
2023/01/16 00:22:55;;;;;;;2.13;0.70;;;5.10;99.90;;;;;;4862269;29;20185;-84
2023/01/16 00:25:21;;;;;;;1.47;0.60;;;5.10;99.90;;;;;;4861766;29;20188;-84
2023/01/16 00:27:47;;;;;;;0.87;0.50;;;5.10;99.90;;;;;;4862378;29;20177;-84
2023/01/16 00:30:13;;;;;;;3.80;0.87;;;5.10;99.90;;;;;;4862314;29;20567;-84
2023/01/16 00:32:38;;;;;;;1.33;0.60;;;5.10;99.90;;;;;;4862103;29;20676;-84
2023/01/16 00:35:04;;;;;;;3.40;0.73;;;5.10;99.90;;;;;;4861957;29;20183;-85
2023/01/16 00:37:30;;;;;;;1.40;0.60;;;5.10;99.90;;;;;;4845612;29;20249;-83
2023/01/16 00:39:56;;;;;;;2.00;0.63;;;5.10;99.90;;;;;;4862353;29;20185;-87
2023/01/16 00:42:21;;;;;;;3.47;0.90;;;5.20;99.90;;;;;;4861934;29;20561;-88
2023/01/16 00:44:47;;;;;;;5.13;0.80;;;5.10;99.90;;;;;;4845575;29;20609;-86
2023/01/16 00:47:13;;;;;;;2.23;0.60;;;5.00;99.90;;;;;;4860212;29;20184;-87
2023/01/16 00:49:39;;;;;;;1.97;0.50;;;5.00;99.90;;;;;;4843804;29;20181;-88
2023/01/16 00:52:05;;;;;;;2.73;0.80;;;5.00;99.90;;;;;;4844110;29;20524;-87
2023/01/16 00:54:31;;;;;;;2.63;0.93;;;4.90;99.90;;;;;;4843483;29;20185;-85
2023/01/16 00:56:57;;;;;;;1.50;0.70;;;4.90;99.90;;;;;;4827196;29;20182;-83
2023/01/16 00:59:23;;;;;;;2.83;0.80;;;4.90;99.90;;;;;;4842289;29;20200;-86
2023/01/16 01:01:48;;;;;;;1.93;0.70;;;4.90;99.90;;;;;;4827215;29;20288;-86
2023/01/16 01:04:14;;;;;;;4.40;0.90;;;4.90;99.90;;;;;;4826810;29;20640;-87
2023/01/16 01:06:40;;;;;;;2.80;0.77;;;4.90;99.90;;;;;;4842435;29;20266;-84
2023/01/16 01:09:06;;;;;;;4.53;0.87;;;4.90;99.90;;;;;;4827167;29;20185;-85
2023/01/16 01:11:31;;;;;;;2.07;0.70;;;4.90;99.90;;;;;;4827166;29;20511;-85
2023/01/16 01:13:58;;;;;;;2.90;0.90;;;4.80;99.90;;;;;;4843516;29;20189;-85
2023/01/16 01:16:24;;;;;;;3.80;0.80;;;4.80;99.90;;;;;;4842272;29;20193;-86
2023/01/16 01:18:50;;;;;;;5.93;1.00;;;4.80;99.90;;;;;;4856464;29;20208;-86
2023/01/16 01:21:16;;;;;;;3.83;0.93;;;4.80;99.90;;;;;;4845119;29;20246;-87
2023/01/16 01:23:42;;;;;;;5.20;0.60;;;4.80;99.90;;;;;;4845077;29;20187;-84
2023/01/16 01:26:10;;;;;;;3.40;1.00;;;4.90;99.90;;;;;;4861952;29;20169;-85
2023/01/16 01:28:36;;;;;;;2.37;0.70;;;4.90;99.90;;;;;;4861879;29;20188;-86
2023/01/16 01:31:04;;;;;;;3.07;0.80;;;4.90;99.90;;;;;;4862091;29;20184;-85
2023/01/16 01:33:29;;;;;;;3.67;0.90;;;4.90;99.90;;;;;;4844784;29;20271;-85
2023/01/16 01:35:55;;;;;;;4.27;0.97;;;4.90;99.90;;;;;;4863057;29;20271;-84
2023/01/16 01:38:21;;;;;;;3.17;0.60;;;4.90;99.90;;;;;;4864391;29;20214;-84
2023/01/16 01:40:46;;;;;;;2.50;0.57;;;4.80;99.90;;;;;;4849035;29;20208;-86
2023/01/16 01:43:13;;;;;;;1.87;0.80;;;4.80;99.90;;;;;;4864045;29;20240;-90
2023/01/16 01:45:44;;;;;;;4.33;0.80;;;4.80;99.90;;;;;;4848835;29;20549;-87
2023/01/16 01:48:13;;;;;;;1.63;0.47;;;4.70;99.90;;;;;;4848379;29;20448;-88
2023/01/16 01:50:55;;;;;;;1.97;0.70;;;4.70;99.90;;;;;;4848736;29;20184;-84
2023/01/16 01:53:25;;;;;;;2.43;0.93;;;4.70;99.90;;;;;;4865139;29;20268;-86
2023/01/16 01:55:53;;;;;;;3.93;0.70;;;4.70;99.90;;;;;;4848571;29;20287;-87
2023/01/16 01:58:23;;;;;;;3.80;0.80;;;4.70;99.90;;;;;;4864939;29;20199;-86
2023/01/16 02:00:52;;;;;;;1.57;0.80;;;4.80;99.90;;;;;;4864919;29;20261;-85
2023/01/16 02:03:27;;;;;;;2.67;0.93;;;4.80;99.90;;;;;;4847810;29;20176;-85
2023/01/16 02:05:56;;;;;;;3.07;0.80;;;4.80;99.90;;;;;;4848531;29;20182;-86
2023/01/16 02:08:28;;;;;;;5.73;0.80;;;4.80;99.90;;;;;;4848495;29;20215;-85
2023/01/16 02:11:01;;;;;;;3.07;0.80;;;4.80;99.90;;;;;;4864943;29;20229;-85
2023/01/16 02:13:27;;;;;;;3.27;1.30;;;4.90;99.90;;;;;;4864546;29;20200;-84
2023/01/16 02:21:44;;;;;;;4.23;1.30;;;4.90;99.90;;;;;;4864492;29;20384;-86
2023/01/16 02:24:25;;;;;;;3.40;0.90;;;4.90;99.90;;;;;;4811019;29;20189;-86
2023/01/16 02:27:16;;;;;;;3.00;1.00;;;4.90;99.90;;;;;;4864540;29;20209;-84
2023/01/16 02:29:57;;;;;;;4.07;1.53;;;4.90;99.90;;;;;;4864510;29;20489;-84
2023/01/16 02:32:58;;;;;;;4.77;1.10;;;4.90;99.90;;;;;;4864440;29;20621;-83
2023/01/16 02:35:32;;;;;;;4.27;1.20;;;4.90;99.90;;;;;;4823409;29;20203;-81
2023/01/16 02:38:30;;;;;;;5.27;1.00;;;4.80;99.90;;;;;;4864337;29;20263;-82
2023/01/16 02:41:08;;;;;;;3.97;1.30;;;4.80;99.90;;;;;;4844823;29;20216;-82
2023/01/16 02:44:16;;;;;;;3.27;1.00;;;4.80;99.90;;;;;;4864210;29;20161;-86
2023/01/16 02:46:42;;;;;;;2.80;1.23;;;4.70;99.90;;;;;;4843498;29;20193;-82
2023/01/16 02:49:16;;;;;;;3.30;0.97;;;4.70;99.90;;;;;;4863407;29;20272;-82
2023/01/16 02:51:51;;;;;;;7.20;1.20;;;4.60;99.90;;;;;;4864106;29;20256;-81
2023/01/16 02:54:39;;;;;;;4.00;1.13;;;4.70;99.90;;;;;;5273342;23;20239;-81
2023/01/16 02:57:17;;;;;;;4.43;1.13;;;4.70;99.90;;;;;;4863132;29;20642;-83
2023/01/16 02:59:44;;;;;;;4.40;1.10;;;4.60;99.90;;;;;;4864021;29;20354;-83
2023/01/16 03:02:10;;;;;;;7.13;0.90;;;4.70;99.90;;;;;;4847274;29;20232;-85
2023/01/16 03:04:50;;;;;;;4.47;1.00;;;4.70;99.90;;;;;;4863809;29;20172;-84
2023/01/16 03:07:25;;;;;;;3.70;1.00;;;4.80;99.90;;;;;;4847116;29;20203;-83
2023/01/16 03:10:00;;;;;;;5.93;1.10;;;4.80;99.90;;;;;;4847038;29;20585;-83
2023/01/16 03:12:53;;;;;;;4.87;1.00;;;4.80;99.90;;;;;;4863720;29;20180;-82
2023/01/16 03:15:30;;;;;;;4.40;1.20;;;4.80;99.90;;;;;;4863644;29;20173;-84
2023/01/16 03:18:27;;;;;;;3.93;1.10;;;4.80;99.90;;;;;;4863708;29;20255;-84
2023/01/16 03:20:52;;;;;;;3.30;1.10;;;4.80;99.90;;;;;;4863580;29;20205;-81
2023/01/16 03:23:58;;;;;;;4.50;0.93;;;4.80;99.90;;;;;;4863485;29;20316;-83
2023/01/16 03:26:29;;;;;;;2.17;0.77;;;4.70;99.90;;;;;;4863647;29;20184;-79
2023/01/16 03:29:00;;;;;;;1.97;0.73;;;4.70;99.90;;;;;;4863596;29;20688;-80
2023/01/16 03:31:33;;;;;;;3.27;0.93;;;4.60;99.90;;;;;;4863651;29;20521;-80
2023/01/16 03:34:02;;;;;;;3.27;0.67;;;4.60;99.90;;;;;;4863390;29;20160;-81
2023/01/16 03:36:54;;;;;;;2.27;0.83;;;4.60;99.90;;;;;;4863367;29;20181;-83
2023/01/16 03:39:26;;;;;;;3.90;1.13;;;4.50;99.90;;;;;;4859330;29;20197;-80
2023/01/16 03:41:57;;;;;;;3.47;0.80;;;4.40;99.90;;;;;;4846648;29;20216;-81
2023/01/16 03:44:29;;;;;;;2.30;0.80;;;4.40;99.90;;;;;;4846689;29;20497;-81
2023/01/16 03:46:58;;;;;;;2.40;0.60;;;4.40;99.90;;;;;;4863183;29;20173;-82
2023/01/16 03:49:41;;;;;;;4.30;0.80;;;4.30;99.90;;;;;;4863176;29;20210;-80
2023/01/16 03:52:11;;;;;;;5.80;0.60;;;4.30;99.90;;;;;;4863209;29;20200;-82
2023/01/16 03:55:04;;;;;;;3.47;0.87;;;4.30;99.90;;;;;;4846008;29;20297;-81
2023/01/16 03:57:38;;;;;;;2.13;0.57;;;4.30;99.90;;;;;;4862968;29;20489;-79
2023/01/16 04:00:05;;;;;;;2.73;0.53;;;4.30;99.90;;;;;;4862144;29;20169;-78
2023/01/16 04:02:55;;;;;;;1.23;0.50;;;4.30;99.90;;;;;;4861773;29;20185;-80
2023/01/16 04:05:29;;;;;;;0.93;0.40;;;4.30;99.90;;;;;;4825489;29;20520;-79
2023/01/16 04:08:00;;;;;;;1.20;0.40;;;4.40;99.90;;;;;;4846188;29;20232;-80
2023/01/16 04:10:33;;;;;;;2.23;0.50;;;4.40;99.90;;;;;;4862426;29;20176;-80
2023/01/16 04:13:06;;;;;;;2.67;0.87;;;4.50;99.90;;;;;;4862647;29;20171;-80
2023/01/16 04:15:35;;;;;;;2.03;0.57;;;4.60;99.90;;;;;;4862752;29;20204;-80
2023/01/16 04:18:01;;;;;;;3.00;0.70;;;4.50;99.90;;;;;;4862610;29;20207;-80
2023/01/16 04:20:29;;;;;;;1.97;0.30;;;4.50;99.90;;;;;;4862459;29;20786;-82
2023/01/16 04:22:56;;;;;;;2.67;0.83;;;4.50;99.90;;;;;;4862404;29;20193;-80
2023/01/16 04:25:22;;;;;;;1.60;0.67;;;4.40;99.90;;;;;;4861977;29;20222;-79
2023/01/16 04:27:48;;;;;;;1.53;0.53;;;4.30;99.90;;;;;;4862470;29;20217;-80
2023/01/16 04:30:15;;;;;;;3.33;0.60;;;4.20;99.90;;;;;;4862399;29;20628;-84
2023/01/16 04:32:41;;;;;;;1.80;0.70;;;4.20;99.90;;;;;;4845825;29;20204;-80
2023/01/16 04:35:07;;;;;;;4.30;0.60;;;4.20;99.90;;;;;;4862122;29;20180;-81
2023/01/16 04:37:33;;;;;;;2.03;0.50;;;4.10;99.90;;;;;;4862147;29;20180;-80
2023/01/16 04:39:59;;;;;;;2.53;0.50;;;4.10;99.90;;;;;;4862143;29;20177;-82
2023/01/16 04:42:25;;;;;;;3.47;0.50;;;4.00;99.90;;;;;;4862135;29;20189;-81
2023/01/16 04:44:50;;;;;;;2.47;0.60;;;4.00;99.90;;;;;;4862019;29;20605;-80
2023/01/16 04:47:16;;;;;;;3.80;0.60;;;4.00;99.90;;;;;;4862017;29;20192;-81
2023/01/16 04:49:42;;;;;;;4.37;0.70;;;3.90;99.90;;;;;;4862095;29;20173;-81
2023/01/16 04:52:09;;;;;;;5.63;0.57;;;3.90;99.90;;;;;;4862156;29;20184;-80
2023/01/16 04:54:34;;;;;;;7.40;0.50;;;3.90;99.90;;;;;;4861412;29;20347;-81
2023/01/16 04:57:01;;;;;;;6.60;0.70;;;3.90;99.90;;;;;;4861943;29;20628;-81
2023/01/16 04:59:27;;;;;;;2.67;0.77;;;3.90;99.90;;;;;;4862050;29;20177;-82
2023/01/16 05:01:53;;;;;;;2.13;0.50;;;3.90;99.90;;;;;;4861855;29;20231;-80
2023/01/16 05:04:19;;;;;;;3.87;0.70;;;3.90;99.90;;;;;;4845256;29;20250;-82
2023/01/16 05:06:45;;;;;;;2.23;0.67;;;3.90;99.90;;;;;;4861995;29;20256;-81
2023/01/16 05:09:11;;;;;;;1.33;0.47;;;3.90;99.90;;;;;;4844340;29;20632;-81
2023/01/16 05:11:37;;;;;;;4.20;0.70;;;3.90;99.90;;;;;;4843195;29;20188;-81
2023/01/16 05:14:07;;;;;;;1.27;0.50;;;3.80;99.90;;;;;;4843208;29;20264;-80
2023/01/16 05:16:37;;;;;;;3.30;0.60;;;3.80;99.90;;;;;;4843454;29;20166;-81
2023/01/16 05:19:04;;;;;;;3.50;0.50;;;3.90;99.90;;;;;;4843391;29;20571;-80
2023/01/16 05:21:30;;;;;;;1.40;0.60;;;3.90;99.90;;;;;;4843278;29;20213;-81
2023/01/16 05:23:56;;;;;;;1.67;0.60;;;3.90;99.90;;;;;;4844797;29;20218;-83
2023/01/16 05:26:21;;;;;;;1.47;0.70;;;3.90;99.90;;;;;;4861527;29;20214;-82
2023/01/16 05:28:47;;;;;;;3.27;0.60;;;4.00;99.90;;;;;;4861783;29;20256;-81
2023/01/16 05:31:13;;;;;;;3.40;0.60;;;4.00;99.90;;;;;;4861657;29;20244;-82
2023/01/16 05:33:38;;;;;;;3.90;0.80;;;3.90;99.90;;;;;;4861634;29;20180;-79
2023/01/16 05:36:04;;;;;;;2.17;0.60;;;3.90;99.90;;;;;;4861427;29;20197;-81
2023/01/16 05:38:30;;;;;;;2.17;0.60;;;3.90;99.90;;;;;;4861830;29;20189;-87
2023/01/16 05:40:56;;;;;;;2.17;0.50;;;3.90;99.90;;;;;;4845114;29;20320;-84
2023/01/16 05:43:22;;;;;;;3.00;0.60;;;3.90;99.90;;;;;;4845336;29;20184;-81
2023/01/16 05:45:47;;;;;;;2.97;0.60;;;3.90;99.90;;;;;;4845582;29;20196;-85
2023/01/16 05:48:14;;;;;;;1.53;0.60;;;3.90;99.90;;;;;;4845373;29;20185;-86
2023/01/16 05:50:40;;;;;;;3.70;0.90;;;3.80;99.90;;;;;;4850384;29;20184;-86
2023/01/16 05:53:05;;;;;;;4.47;1.03;;;3.80;99.90;;;;;;4843323;29;20181;-86
2023/01/16 05:55:32;;;;;;;2.67;0.80;;;3.70;99.90;;;;;;4856844;29;20584;-82
2023/01/16 05:57:58;;;;;;;2.03;0.63;;;3.70;99.90;;;;;;4845136;29;20260;-87
2023/01/16 06:00:24;;;;;;;0.83;0.53;;;3.60;99.90;;;;;;4844758;29;20227;-85
2023/01/16 06:02:50;;;;;;;1.00;0.40;;;3.60;99.90;;;;;;4861407;29;20184;-86
2023/01/16 06:05:16;;;;;;;2.10;0.57;;;3.60;99.90;;;;;;4845072;29;20284;-84
2023/01/16 06:07:41;;;;;;;1.37;0.40;;;3.60;99.90;;;;;;4861775;29;20191;-80
2023/01/16 06:10:09;;;;;;;4.20;0.80;;;3.60;99.90;;;;;;4845104;29;20275;-80
2023/01/16 06:12:35;;;;;;;1.80;0.57;;;3.60;99.90;;;;;;4861541;29;20193;-82
2023/01/16 06:15:01;;;;;;;3.00;0.90;;;3.60;99.90;;;;;;4851585;29;20285;-80
2023/01/16 06:17:26;;;;;;;2.30;0.80;;;3.60;99.90;;;;;;4841824;29;20296;-84
2023/01/16 06:19:52;;;;;;;3.73;0.80;;;3.60;99.90;;;;;;4842055;29;20173;-86
2023/01/16 06:22:18;;;;;;;1.90;0.60;;;3.50;99.90;;;;;;4842315;29;20225;-86
2023/01/16 06:24:43;;;;;;;3.13;0.80;;;3.40;99.90;;;;;;4845248;29;20237;-86
2023/01/16 06:27:10;;;;;;;2.20;0.70;;;3.50;99.90;;;;;;4845234;29;20510;-86
2023/01/16 06:29:38;;;;;;;3.70;0.70;;;3.40;99.90;;;;;;4846495;29;20180;-84
2023/01/16 06:32:04;;;;;;;1.30;0.53;;;3.50;99.90;;;;;;4846580;29;20181;-86
2023/01/16 06:34:29;;;;;;;2.27;0.70;;;3.50;99.90;;;;;;4846152;29;20185;-86
2023/01/16 06:36:57;;;;;;;2.10;0.63;;;3.60;99.90;;;;;;4846544;29;20208;-83
2023/01/16 06:39:23;;;;;;;2.60;0.97;;;3.60;99.90;;;;;;4829911;29;20188;-88
2023/01/16 06:41:49;;;;;;;2.80;0.70;;;3.80;99.90;;;;;;4846239;29;20225;-86
2023/01/16 06:44:14;;;;;;;1.23;0.80;;;3.80;99.90;;;;;;4829842;29;20212;-94
2023/01/16 06:46:48;;;;;;;1.00;0.63;;;3.90;99.90;;;;;;4846820;29;20186;-93
2023/01/16 06:49:13;;;;;;;3.90;0.83;;;3.90;99.90;;;;;;4863172;29;20185;-93
2023/01/16 06:51:39;;;;;;;3.07;0.73;;;3.90;99.90;;;;;;4864836;29;20249;-94
2023/01/16 06:54:05;;;;;;;1.60;0.73;;;3.90;99.90;;;;;;4864578;29;20232;-87
2023/01/16 06:56:31;;;;;;;3.20;0.60;;;3.90;99.90;;;;;;4865593;29;20255;-83
2023/01/16 06:58:56;;;;;;;2.00;0.60;;;3.80;99.90;;;;;;4864875;29;20223;-85
2023/01/16 07:01:22;;;;;;;1.43;0.70;;;3.80;99.90;;;;;;4864662;29;20213;-94
2023/01/16 07:03:48;;;;;;;0.97;0.50;;;3.80;99.90;;;;;;4864626;29;20577;-91
2023/01/16 07:06:13;;;;;;;1.77;0.57;;;3.70;99.90;;;;;;4864775;29;20180;-92
2023/01/16 07:08:41;;;;;;;1.87;0.60;;;3.80;99.90;;;;;;4847975;29;20252;-93
2023/01/16 07:11:07;;;;;;;3.93;0.70;;;3.70;99.90;;;;;;4848251;29;20279;-93
2023/01/16 07:13:32;;;;;;;3.07;0.67;;;3.70;99.90;;;;;;4864171;29;20640;-94
2023/01/16 07:24:29;;;;;;;6.33;1.20;;;3.60;99.90;;;;;;4863490;29;20179;-90
2023/01/16 07:27:02;;;;;;;1.10;0.50;;;3.60;99.90;;;;;;4847127;29;20943;-85
2023/01/16 07:29:30;;;;;;;2.10;0.60;;;3.60;99.90;;;;;;4863482;29;20235;-81
2023/01/16 07:31:57;;;;;;;1.97;0.47;;;3.60;99.90;;;;;;4863470;29;20525;-82
2023/01/16 07:34:23;;;;;;;3.07;0.57;;;3.60;99.90;;;;;;4863285;29;20207;-94
2023/01/16 07:36:50;;;;;;;4.00;0.70;;;3.60;99.90;;;;;;4864339;29;20628;-94
2023/01/16 07:39:16;;;;;;;1.80;0.80;;;3.70;99.90;;;;;;4849974;29;20184;-89
2023/01/16 07:41:41;;;;;;;2.30;0.70;;;3.60;99.90;;;;;;4865179;29;20656;-94
2023/01/16 07:44:10;;;;;;;2.70;0.87;;;3.60;99.90;;;;;;4847596;29;20192;-94
2023/01/16 07:46:36;;;;;;;2.57;0.63;;;3.70;99.90;;;;;;4847588;29;20188;-87
2023/01/16 07:49:09;;;;;;;3.47;0.87;;;3.70;99.90;;;;;;4864054;29;20630;-94
2023/01/16 07:51:35;;;;;;;1.23;0.60;;;3.70;99.90;;;;;;4847786;29;20556;-93
2023/01/16 07:54:01;;;;;;;3.77;1.10;;;3.70;99.90;;;;;;4847572;29;20393;-94
2023/01/16 07:56:26;;;;;;;3.77;0.97;;;3.70;99.90;;;;;;4864424;29;20209;-87
2023/01/16 07:58:54;;;;;;;3.17;0.80;;;3.70;99.90;;;;;;4846865;29;20185;-82
2023/01/16 08:01:20;;;;;;;2.50;0.90;;;3.70;99.90;;;;;;4863108;29;20200;-86
2023/01/16 08:03:46;;;;;;;1.10;0.47;;;3.70;99.90;;;;;;4861631;29;20191;-82
2023/01/16 08:06:11;;;;;;;1.73;1.00;;;3.70;99.90;;;;;;4863194;29;20180;-84
2023/01/16 08:08:38;;;;;;;3.50;0.70;;;3.70;99.90;;;;;;4846740;29;20488;-84
2023/01/16 08:11:35;;;;;;;1.77;0.70;;;3.70;99.90;;;;;;4863106;29;20639;-84
2023/01/16 08:13:50;;;;;;;4.20;0.70;;;3.70;99.90;;;;;;4862712;29;20185;-90
2023/01/16 08:16:15;;;;;;;4.53;0.67;;;3.70;99.90;;;;;;4863029;29;20180;-84
2023/01/16 08:18:41;;;;;;;1.47;0.63;;;3.70;99.90;;;;;;4861563;29;20199;-84
2023/01/16 08:21:07;;;;;;;1.83;0.70;;;3.80;99.90;;;;;;4862939;29;20219;-84
2023/01/16 08:23:32;;;;;;;4.50;0.70;;;3.80;99.90;;;;;;4861650;29;20271;-87
2023/01/16 08:26:00;;;;;;;2.77;0.80;;;3.70;99.90;;;;;;4846403;29;20233;-85
2023/01/16 08:28:26;;;;;;;2.07;0.53;;;3.80;99.90;;;;;;4862797;29;20207;-86
2023/01/16 08:30:52;;;;;;;2.53;1.00;;;3.80;99.90;;;;;;4863147;29;20188;-85
2023/01/16 08:33:18;;;;;;;3.80;1.00;;;3.90;99.90;;;;;;4862639;29;20192;-84
2023/01/16 08:35:43;;;;;;;4.73;0.90;;;3.90;99.90;;;;;;4846226;29;20196;-88
2023/01/16 08:38:09;;;;;;;2.53;0.80;;;4.00;99.90;;;;;;4862965;29;20184;-85
2023/01/16 08:40:35;;;;;;;2.60;0.70;;;4.10;99.90;;;;;;4845799;29;20220;-92
2023/01/16 08:51:21;;;;;;;2.93;0.97;;;4.30;99.90;;;;;;4863228;29;20177;-89
2023/01/16 08:53:48;;;;;;;1.23;0.60;;;4.30;99.90;;;;;;4845963;29;20184;-90
2023/01/16 08:56:14;;;;;;;3.07;1.00;;;4.30;99.90;;;;;;4846214;29;20189;-85
2023/01/16 08:58:40;;;;;;;2.90;1.27;;;4.40;99.90;;;;;;4862612;29;20210;-87
2023/01/16 09:01:06;;;;;;;1.97;0.80;;;4.40;99.90;;;;;;4862455;29;20213;-82
2023/01/16 09:03:34;;;;;;;1.20;0.63;;;4.50;99.90;;;;;;4861909;29;20232;-82
2023/01/16 09:06:00;;;;;;;2.53;0.77;;;4.60;99.90;;;;;;4846081;29;20185;-85
2023/01/16 09:08:26;;;;;;;2.30;1.00;;;4.60;99.90;;;;;;4845889;29;20267;-85
2023/01/16 09:13:48;;;;;;;1.90;0.87;;;4.70;99.90;;;;;;4862619;29;20187;-88
2023/01/16 09:16:33;;;;;;;3.53;0.80;;;4.80;99.90;;;;;;4862321;29;20176;-92
2023/01/16 09:18:58;;;;;;;5.27;0.80;;;4.90;99.90;;;;;;4861394;29;20267;-81
2023/01/16 09:21:24;;;;;;;1.57;0.57;;;4.90;99.90;;;;;;4845818;29;20330;-85
2023/01/16 09:23:51;;;;;;;3.07;0.90;;;5.00;99.90;;;;;;4862199;29;20188;-89
2023/01/16 09:26:17;;;;;;;5.13;1.13;;;5.00;99.90;;;;;;4862287;29;20192;-85
2023/01/16 09:28:44;;;;;;;4.27;0.97;;;5.10;99.90;;;;;;4845808;29;20192;-89
2023/01/16 09:31:10;;;;;;;4.33;0.73;;;5.20;99.90;;;;;;4845612;29;20186;-88
2023/01/16 09:33:36;;;;;;;1.33;0.63;;;5.20;99.90;;;;;;4860644;29;20526;-86
2023/01/16 09:36:03;;;;;;;2.87;0.80;;;5.30;99.90;;;;;;4862252;29;20257;-87
2023/01/16 09:38:29;;;;;;;1.23;0.70;;;5.40;99.90;;;;;;4862351;29;20189;-87
2023/01/16 09:40:57;;;;;;;1.93;0.70;;;5.50;99.90;;;;;;4862286;29;20268;-89
2023/01/16 09:43:38;;;;;;;2.50;0.70;;;5.50;99.90;;;;;;4861990;29;20185;-83
2023/01/16 09:46:34;;;;;;;2.33;0.67;;;5.60;99.90;;;;;;4862242;29;20187;-86
2023/01/16 09:49:18;;;;;;;2.03;0.70;;;5.70;99.90;;;;;;4844015;29;20196;-85
2023/01/16 10:00:16;;;;;;;2.70;0.60;;;5.70;99.90;;;;;;4866318;29;20175;-90
2023/01/16 10:02:43;;;;;;;4.50;0.70;;;5.50;99.90;;;;;;4865472;29;20632;-86
2023/01/16 10:05:11;;;;;;;1.80;0.53;;;5.50;99.90;;;;;;4865405;29;20689;-89
2023/01/16 10:07:59;;;;;;;5.37;0.90;;;5.50;99.90;;;;;;4848814;29;20237;-85
2023/01/16 10:10:36;;;;;;;2.57;0.60;;;5.40;99.90;;;;;;4865225;29;20184;-88
2023/01/16 10:13:29;;;;;;;2.10;0.70;;;5.40;99.90;;;;;;4865144;29;20175;-81
2023/01/16 10:16:15;;;;;;;2.50;0.60;;;5.40;99.90;;;;;;4848333;29;20299;-86
2023/01/16 10:18:58;;;;;;;1.07;0.60;;;5.50;99.90;;;;;;4864406;29;20189;-80
2023/01/16 10:21:24;;;;;;;2.67;0.80;;;5.40;99.90;;;;;;4864894;29;20216;-82
2023/01/16 10:24:08;;;;;;;2.67;0.83;;;5.40;99.90;;;;;;4848413;29;20184;-85
2023/01/16 10:26:34;;;;;;;1.50;0.80;;;5.40;99.90;;;;;;4864799;29;20173;-83
2023/01/16 10:29:10;;;;;;;0.87;0.67;;;5.40;99.90;;;;;;4864525;29;20530;-84
2023/01/16 10:31:47;;;;;;;1.33;0.40;;;5.40;99.90;;;;;;4864431;29;20252;-80
2023/01/16 10:34:31;;;;;;;1.60;0.70;;;5.40;99.90;;;;;;4847502;29;20264;-80
2023/01/16 10:36:59;;;;;;;1.87;0.60;;;5.40;99.90;;;;;;4864481;29;20210;-82
2023/01/16 10:39:32;;;;;;;1.77;0.60;;;5.40;99.90;;;;;;4864407;29;20181;-86
2023/01/16 10:51:04;;;;;;;1.53;0.70;;;5.70;99.90;;;;;;4864289;29;20171;-82
2023/01/16 10:53:31;;;;;;;1.00;0.40;;;5.70;99.90;;;;;;4862687;29;20195;-82
2023/01/16 10:55:58;;;;;;;4.53;0.50;;;5.80;99.90;;;;;;4864011;29;20563;-81
2023/01/16 10:58:29;;;;;;;1.60;0.50;;;5.90;99.90;;;;;;4864061;29;20608;-82
2023/01/16 11:01:13;;;;;;;2.80;0.73;;;5.80;99.90;;;;;;4854322;29;20205;-82
2023/01/16 11:03:39;;;;;;;5.13;0.70;;;5.80;99.90;;;;;;4845551;29;20169;-86
2023/01/16 11:06:08;;;;;;;1.77;0.70;;;5.80;99.90;;;;;;4843810;29;20219;-83
2023/01/16 11:08:35;;;;;;;1.37;0.53;;;5.80;99.90;;;;;;4843185;29;20640;-82
2023/01/16 11:11:01;;;;;;;2.17;0.60;;;5.80;99.90;;;;;;4845345;29;20222;-82
2023/01/16 11:19:14;;;;;;;2.83;0.80;;;5.70;99.90;;;;;;4845302;29;20222;-83
2023/01/16 11:21:43;;;;;;;1.23;0.60;;;5.80;99.90;;;;;;4844903;29;20240;-83
2023/01/16 11:24:20;;;;;;;2.20;0.87;;;5.80;99.90;;;;;;4844852;29;20257;-85
2023/01/16 11:26:51;;;;;;;1.90;0.70;;;5.80;99.90;;;;;;4844941;29;20188;-82
2023/01/16 11:29:18;;;;;;;0.83;0.60;;;5.70;99.90;;;;;;4845069;29;20253;-83
2023/01/16 11:31:54;;;;;;;3.30;0.80;;;5.70;99.90;;;;;;4844998;29;20205;-84
2023/01/16 11:34:25;;;;;;;1.47;0.60;;;5.70;99.90;;;;;;4828429;29;20185;-84
2023/01/16 11:36:57;;;;;;;1.47;0.70;;;5.70;99.90;;;;;;4856784;29;20200;-84
2023/01/16 11:39:27;;;;;;;2.63;0.57;;;5.70;99.90;;;;;;4863466;29;20169;-82
2023/01/16 11:41:56;;;;;;;1.87;0.77;;;5.60;99.90;;;;;;4863154;29;20247;-82
2023/01/16 11:47:16;;;;;;;4.33;0.60;;;5.60;99.90;;;;;;4863209;29;20253;-84
2023/01/16 11:49:51;;;;;;;2.43;0.70;;;5.60;99.90;;;;;;4863155;29;20177;-81
2023/01/16 11:52:29;;;;;;;4.27;0.80;;;5.60;99.90;;;;;;4862691;29;20208;-81
2023/01/16 11:55:03;;;;;;;3.30;0.73;;;5.60;99.90;;;;;;4862843;29;20687;-82
2023/01/16 11:58:02;;;;;;;3.47;0.70;;;5.60;99.90;;;;;;4863081;29;20241;-82
2023/01/16 12:01:09;;;;;;;3.00;0.80;;;5.60;99.90;;;;;;4846211;29;20210;-81
2023/01/16 12:03:50;;;;;;;2.00;0.90;;;5.60;99.90;;;;;;4790725;29;20205;-84
2023/01/16 12:06:31;;;;;;;3.00;0.77;;;5.60;99.90;;;;;;4856895;29;20205;-80
2023/01/16 12:09:17;;;;;;;1.30;0.70;;;5.60;99.90;;;;;;4862498;29;20169;-83
2023/01/16 12:14:17;;;;;;;2.17;0.57;;;5.70;99.90;;;;;;4863048;29;20183;-82
2023/01/16 12:14:54;;;;;;;3.77;0.70;;;5.70;99.90;;;;;;4862580;29;20180;-83
2023/01/16 12:17:50;;;;;;;1.63;0.50;;;5.60;99.90;;;;;;4860403;29;20189;-83
2023/01/16 12:20:31;;;;;;;1.00;0.60;;;5.60;99.90;;;;;;4845234;29;20522;-85
2023/01/16 12:23:17;;;;;;;1.10;0.57;;;5.60;99.90;;;;;;4862504;29;20180;-85
2023/01/16 12:26:22;;;;;;;2.57;0.60;;;5.70;99.90;;;;;;4862550;29;20177;-82
2023/01/16 12:29:12;;;;;;;5.07;0.63;;;5.70;99.90;;;;;;4861366;29;20647;-82
2023/01/16 12:31:59;;;;;;;3.00;0.63;;;5.70;99.90;;;;;;4861048;29;20640;-82
2023/01/16 12:34:47;;;;;;;2.47;0.60;;;5.70;99.90;;;;;;4862134;29;20177;-87
2023/01/16 12:37:24;;;;;;;2.57;0.67;;;5.70;99.90;;;;;;4845749;29;20546;-85
2023/01/16 12:40:07;;;;;;;2.67;0.60;;;5.70;99.90;;;;;;4844290;29;20185;-82
2023/01/16 12:45:50;;;;;;;2.10;0.50;;;5.90;99.90;;;;;;4862190;29;20227;-81
2023/01/16 12:48:41;;;;;;;1.40;0.63;;;5.90;99.90;;;;;;4845801;29;20275;-83
2023/01/16 12:51:22;;;;;;;4.23;0.60;;;6.00;99.90;;;;;;4862100;29;20620;-87
2023/01/16 12:54:16;;;;;;;2.63;0.50;;;6.10;99.90;;;;;;4861720;29;20200;-88
2023/01/16 12:57:00;;;;;;;3.10;0.80;;;6.10;99.90;;;;;;4861880;29;20205;-82
2023/01/16 12:59:54;;;;;;;1.03;0.40;;;6.10;99.90;;;;;;4862028;29;20176;-82
2023/01/16 13:02:45;;;;;;;4.03;0.60;;;6.10;99.90;;;;;;4845178;29;20275;-83
2023/01/16 13:05:18;;;;;;;1.93;0.53;;;6.10;99.90;;;;;;4861718;29;20169;-85
2023/01/16 13:08:14;;;;;;;3.93;0.70;;;6.10;99.90;;;;;;4861685;29;20511;-83
2023/01/16 13:13:38;;;;;;;1.30;0.67;;;6.10;99.90;;;;;;4862003;29;20225;-82
2023/01/16 13:16:20;;;;;;;0.87;0.40;;;6.10;99.90;;;;;;4845396;29;20180;-81
2023/01/16 13:18:53;;;;;;;2.27;0.60;;;6.10;99.90;;;;;;4845494;29;20219;-83
2023/01/16 13:21:26;;;;;;;1.90;0.60;;;6.10;99.90;;;;;;4845386;29;20235;-82
2023/01/16 13:23:56;;;;;;;2.70;0.60;;;6.10;99.90;;;;;;4861387;29;20165;-82
2023/01/16 13:26:24;;;;;;;4.83;1.30;;;6.00;99.90;;;;;;4862048;29;20208;-82
2023/01/16 13:28:59;;;;;;;3.47;0.80;;;6.00;99.90;;;;;;4861795;29;20556;-82
2023/01/16 13:31:42;;;;;;;2.47;0.70;;;6.00;99.90;;;;;;4845801;29;20197;-83
2023/01/16 13:34:17;;;;;;;1.10;0.50;;;6.00;99.90;;;;;;4865949;29;20282;-85
2023/01/16 13:37:01;;;;;;;1.87;0.50;;;6.00;99.90;;;;;;4864571;29;20219;-82
2023/01/16 13:39:46;;;;;;;2.17;0.60;;;6.00;99.90;;;;;;4865420;29;20180;-84
2023/01/16 13:42:15;;;;;;;2.00;0.60;;;6.00;99.90;;;;;;4849079;29;20550;-87
2023/01/16 13:47:40;;;;;;;3.43;1.00;;;6.00;99.90;;;;;;4866127;29;20183;-89
2023/01/16 13:50:25;;;;;;;2.33;0.90;;;6.10;99.90;;;;;;4865844;29;20267;-89
2023/01/16 13:52:55;;;;;;;4.30;1.07;;;6.10;99.90;;;;;;4848845;29;20263;-83
2023/01/16 13:55:35;;;;;;;1.87;0.57;;;6.10;99.90;;;;;;4865338;29;20232;-86
2023/01/16 13:58:27;;;;;;;4.97;0.93;;;6.10;99.90;;;;;;4865897;29;20224;-81
2023/01/16 14:01:01;;;;;;;2.40;0.90;;;6.20;99.90;;;;;;4863009;29;20301;-88
2023/01/16 14:03:33;;;;;;;2.20;0.70;;;6.20;99.90;;;;;;4848987;29;20553;-87
2023/01/16 14:06:10;;;;;;;3.20;0.60;;;6.10;99.90;;;;;;4865340;29;20241;-90
2023/01/16 14:09:06;;;;;;;1.87;0.50;;;6.20;99.90;;;;;;4864863;29;20188;-81
2023/01/16 14:12:01;;;;;;;0.73;0.50;;;6.30;99.90;;;;;;4865595;29;20161;-91
2023/01/16 14:17:52;;;;;;;1.63;0.70;;;6.40;99.90;;;;;;4865292;29;20652;-88
2023/01/16 14:20:48;;;;;;;1.70;0.50;;;6.50;99.90;;;;;;4848560;29;20244;-91
2023/01/16 14:26:29;;;;;;;2.23;0.80;;;6.40;99.90;;;;;;4865451;29;20171;-86
2023/01/16 14:28:55;;;;;;;1.90;0.67;;;6.40;99.90;;;;;;4865682;29;20204;-85